sensor_id;sensor_type;location;lat;lon;timestamp;pressure;altitude;pressure_sealevel;temperature;humidity
61524;BME280;47393;38.758;-9.164;2022-10-31T00:01:13;100382.00;;;17.02;100.00
61524;BME280;47393;38.758;-9.164;2022-10-31T00:03:15;100386.81;;;16.99;100.00
61524;BME280;47393;38.758;-9.164;2022-10-31T00:05:27;100382.66;;;16.96;100.00
61524;BME280;47393;38.758;-9.164;2022-10-31T00:07:31;100382.16;;;16.92;100.00
61524;BME280;47393;38.758;-9.164;2022-10-31T00:09:53;100380.66;;;16.98;100.00
61524;BME280;47393;38.758;-9.164;2022-10-31T00:11:57;100374.84;;;16.94;100.00
61524;BME280;47393;38.758;-9.164;2022-10-31T00:14:04;100374.69;;;16.96;100.00
61524;BME280;47393;38.758;-9.164;2022-10-31T00:16:18;100372.19;;;16.94;100.00
61524;BME280;47393;38.758;-9.164;2022-10-31T00:18:33;100365.53;;;16.90;100.00
61524;BME280;47393;38.758;-9.164;2022-10-31T00:21:05;100371.31;;;16.86;100.00
61524;BME280;47393;38.758;-9.164;2022-10-31T00:23:06;100375.19;;;16.91;100.00
61524;BME280;47393;38.758;-9.164;2022-10-31T00:25:07;100368.72;;;16.94;100.00
61524;BME280;47393;38.758;-9.164;2022-10-31T00:27:08;100380.16;;;16.94;100.00
61524;BME280;47393;38.758;-9.164;2022-10-31T00:29:09;100373.34;;;16.84;100.00
61524;BME280;47393;38.758;-9.164;2022-10-31T00:31:11;100378.97;;;16.81;100.00
61524;BME280;47393;38.758;-9.164;2022-10-31T00:33:12;100374.13;;;16.76;100.00
61524;BME280;47393;38.758;-9.164;2022-10-31T00:35:15;100370.16;;;16.64;100.00
61524;BME280;47393;38.758;-9.164;2022-10-31T00:37:21;100369.47;;;16.53;100.00
61524;BME280;47393;38.758;-9.164;2022-10-31T00:39:22;100361.84;;;16.50;100.00
61524;BME280;47393;38.758;-9.164;2022-10-31T00:41:23;100356.53;;;16.50;100.00
61524;BME280;47393;38.758;-9.164;2022-10-31T00:43:24;100362.84;;;16.49;100.00
61524;BME280;47393;38.758;-9.164;2022-10-31T00:45:33;100356.03;;;16.47;100.00
61524;BME280;47393;38.758;-9.164;2022-10-31T00:47:35;100350.72;;;16.47;100.00
61524;BME280;47393;38.758;-9.164;2022-10-31T00:49:49;100346.41;;;16.46;100.00
61524;BME280;47393;38.758;-9.164;2022-10-31T00:51:59;100361.00;;;16.41;100.00
61524;BME280;47393;38.758;-9.164;2022-10-31T00:54:03;100357.50;;;16.41;100.00
61524;BME280;47393;38.758;-9.164;2022-10-31T00:56:07;100360.16;;;16.41;100.00
61524;BME280;47393;38.758;-9.164;2022-10-31T00:58:08;100355.50;;;16.43;100.00
61524;BME280;47393;38.758;-9.164;2022-10-31T01:00:12;100348.22;;;16.45;100.00
61524;BME280;47393;38.758;-9.164;2022-10-31T01:02:22;100348.56;;;16.42;100.00
61524;BME280;47393;38.758;-9.164;2022-10-31T01:04:28;100342.56;;;16.40;100.00
61524;BME280;47393;38.758;-9.164;2022-10-31T01:21:17;100292.00;;;16.58;100.00
61524;BME280;47393;38.758;-9.164;2022-10-31T01:23:47;100296.97;;;16.61;100.00
61524;BME280;47393;38.758;-9.164;2022-10-31T01:26:19;100290.00;;;16.60;100.00
61524;BME280;47393;38.758;-9.164;2022-10-31T01:28:29;100288.31;;;16.59;100.00
61524;BME280;47393;38.758;-9.164;2022-10-31T01:30:38;100291.31;;;16.64;100.00
61524;BME280;47393;38.758;-9.164;2022-10-31T01:35:20;100297.31;;;16.58;100.00
61524;BME280;47393;38.758;-9.164;2022-10-31T01:37:21;100294.16;;;16.63;100.00
61524;BME280;47393;38.758;-9.164;2022-10-31T01:39:22;100294.81;;;16.56;100.00
61524;BME280;47393;38.758;-9.164;2022-10-31T01:41:33;100293.31;;;16.54;100.00
61524;BME280;47393;38.758;-9.164;2022-10-31T01:44:00;100292.16;;;16.56;100.00
61524;BME280;47393;38.758;-9.164;2022-10-31T01:46:05;100281.72;;;16.55;100.00
61524;BME280;47393;38.758;-9.164;2022-10-31T01:48:32;100280.53;;;16.57;100.00
61524;BME280;47393;38.758;-9.164;2022-10-31T01:50:39;100275.72;;;16.53;100.00
61524;BME280;47393;38.758;-9.164;2022-10-31T01:53:34;100290.16;;;16.50;100.00
61524;BME280;47393;38.758;-9.164;2022-10-31T01:55:55;100296.63;;;16.48;100.00
61524;BME280;47393;38.758;-9.164;2022-10-31T01:58:18;100298.78;;;16.52;100.00
61524;BME280;47393;38.758;-9.164;2022-10-31T02:00:44;100298.13;;;16.50;100.00
61524;BME280;47393;38.758;-9.164;2022-10-31T02:02:53;100302.28;;;16.53;100.00
61524;BME280;47393;38.758;-9.164;2022-10-31T02:05:16;100299.28;;;16.48;100.00
61524;BME280;47393;38.758;-9.164;2022-10-31T02:07:37;100300.91;;;16.40;100.00
61524;BME280;47393;38.758;-9.164;2022-10-31T02:10:11;100289.47;;;16.32;100.00
61524;BME280;47393;38.758;-9.164;2022-10-31T02:12:36;100281.34;;;16.33;100.00
61524;BME280;47393;38.758;-9.164;2022-10-31T02:14:38;100283.19;;;16.41;100.00
61524;BME280;47393;38.758;-9.164;2022-10-31T02:22:10;100277.38;;;16.37;100.00
61524;BME280;47393;38.758;-9.164;2022-10-31T02:27:01;100278.84;;;16.32;100.00
61524;BME280;47393;38.758;-9.164;2022-10-31T02:36:42;100270.25;;;16.30;100.00
61524;BME280;47393;38.758;-9.164;2022-10-31T02:45:42;100267.41;;;16.23;100.00
61524;BME280;47393;38.758;-9.164;2022-10-31T02:47:45;100277.19;;;16.22;100.00
61524;BME280;47393;38.758;-9.164;2022-10-31T02:51:55;100267.41;;;16.31;100.00
61524;BME280;47393;38.758;-9.164;2022-10-31T02:54:03;100272.22;;;16.36;100.00
61524;BME280;47393;38.758;-9.164;2022-10-31T02:56:19;100272.56;;;16.41;100.00
61524;BME280;47393;38.758;-9.164;2022-10-31T02:58:55;100283.84;;;16.43;100.00
61524;BME280;47393;38.758;-9.164;2022-10-31T03:17:56;100259.47;;;16.48;100.00
61524;BME280;47393;38.758;-9.164;2022-10-31T03:20:06;100255.31;;;16.45;100.00
61524;BME280;47393;38.758;-9.164;2022-10-31T03:22:20;100261.13;;;16.57;100.00
61524;BME280;47393;38.758;-9.164;2022-10-31T03:24:26;100271.22;;;16.61;100.00
61524;BME280;47393;38.758;-9.164;2022-10-31T03:26:29;100267.25;;;16.66;100.00
61524;BME280;47393;38.758;-9.164;2022-10-31T03:28:36;100262.59;;;16.76;100.00
61524;BME280;47393;38.758;-9.164;2022-10-31T03:30:39;100267.09;;;16.84;100.00
61524;BME280;47393;38.758;-9.164;2022-10-31T03:32:46;100255.00;;;16.89;100.00
61524;BME280;47393;38.758;-9.164;2022-10-31T03:34:53;100258.78;;;16.95;100.00
61524;BME280;47393;38.758;-9.164;2022-10-31T03:36:57;100261.44;;;16.95;100.00
61524;BME280;47393;38.758;-9.164;2022-10-31T03:38:59;100257.47;;;16.91;100.00
61524;BME280;47393;38.758;-9.164;2022-10-31T03:41:03;100253.16;;;16.90;100.00
61524;BME280;47393;38.758;-9.164;2022-10-31T03:43:07;100259.97;;;16.92;100.00
61524;BME280;47393;38.758;-9.164;2022-10-31T03:45:13;100251.47;;;16.89;100.00
61524;BME280;47393;38.758;-9.164;2022-10-31T03:47:16;100257.66;;;16.89;100.00
61524;BME280;47393;38.758;-9.164;2022-10-31T03:49:25;100256.94;;;16.87;100.00
61524;BME280;47393;38.758;-9.164;2022-10-31T03:51:33;100259.59;;;16.79;100.00
61524;BME280;47393;38.758;-9.164;2022-10-31T03:56:09;100253.97;;;16.82;100.00
61524;BME280;47393;38.758;-9.164;2022-10-31T03:58:14;100258.44;;;16.82;100.00
61524;BME280;47393;38.758;-9.164;2022-10-31T04:00:22;100254.97;;;16.81;100.00
61524;BME280;47393;38.758;-9.164;2022-10-31T04:03:03;100247.00;;;16.81;100.00
61524;BME280;47393;38.758;-9.164;2022-10-31T04:05:11;100263.94;;;16.88;100.00
61524;BME280;47393;38.758;-9.164;2022-10-31T04:09:27;100241.50;;;16.99;100.00
61524;BME280;47393;38.758;-9.164;2022-10-31T04:11:36;100241.34;;;17.01;100.00
61524;BME280;47393;38.758;-9.164;2022-10-31T04:14:28;100234.38;;;17.00;100.00
61524;BME280;47393;38.758;-9.164;2022-10-31T04:16:54;100242.50;;;16.98;100.00
61524;BME280;47393;38.758;-9.164;2022-10-31T04:19:01;100243.69;;;16.95;100.00
61524;BME280;47393;38.758;-9.164;2022-10-31T04:21:07;100243.69;;;16.95;100.00
61524;BME280;47393;38.758;-9.164;2022-10-31T04:23:18;100246.31;;;17.04;100.00
61524;BME280;47393;38.758;-9.164;2022-10-31T04:25:22;100240.84;;;17.05;100.00
61524;BME280;47393;38.758;-9.164;2022-10-31T04:27:25;100240.66;;;17.07;100.00
61524;BME280;47393;38.758;-9.164;2022-10-31T04:29:26;100239.00;;;17.06;100.00
61524;BME280;47393;38.758;-9.164;2022-10-31T04:31:31;100230.84;;;17.07;100.00
61524;BME280;47393;38.758;-9.164;2022-10-31T04:33:31;100221.88;;;17.08;100.00
61524;BME280;47393;38.758;-9.164;2022-10-31T04:35:36;100219.69;;;17.12;100.00
61524;BME280;47393;38.758;-9.164;2022-10-31T04:37:37;100228.69;;;17.11;100.00
61524;BME280;47393;38.758;-9.164;2022-10-31T04:39:38;100235.63;;;17.20;100.00
61524;BME280;47393;38.758;-9.164;2022-10-31T04:42:00;100235.59;;;17.28;100.00
61524;BME280;47393;38.758;-9.164;2022-10-31T04:44:01;100246.06;;;17.30;100.00
61524;BME280;47393;38.758;-9.164;2022-10-31T04:46:02;100245.72;;;17.33;100.00
61524;BME280;47393;38.758;-9.164;2022-10-31T04:48:24;100243.22;;;17.40;100.00
61524;BME280;47393;38.758;-9.164;2022-10-31T04:50:26;100244.88;;;17.41;100.00
61524;BME280;47393;38.758;-9.164;2022-10-31T04:52:32;100246.16;;;17.45;100.00
61524;BME280;47393;38.758;-9.164;2022-10-31T04:54:34;100251.47;;;17.45;100.00
61524;BME280;47393;38.758;-9.164;2022-10-31T04:57:16;100259.44;;;17.45;100.00
61524;BME280;47393;38.758;-9.164;2022-10-31T04:59:30;100271.91;;;17.53;100.00
61524;BME280;47393;38.758;-9.164;2022-10-31T05:02:01;100263.41;;;17.57;100.00
61524;BME280;47393;38.758;-9.164;2022-10-31T05:04:23;100260.03;;;17.63;100.00
61524;BME280;47393;38.758;-9.164;2022-10-31T05:06:25;100260.72;;;17.66;100.00
61524;BME280;47393;38.758;-9.164;2022-10-31T05:08:35;100254.41;;;17.67;100.00
61524;BME280;47393;38.758;-9.164;2022-10-31T05:10:39;100258.34;;;17.71;100.00
61524;BME280;47393;38.758;-9.164;2022-10-31T05:12:55;100254.69;;;17.72;100.00
61524;BME280;47393;38.758;-9.164;2022-10-31T05:15:34;100253.72;;;17.64;100.00
61524;BME280;47393;38.758;-9.164;2022-10-31T05:18:03;100248.09;;;17.59;100.00
61524;BME280;47393;38.758;-9.164;2022-10-31T05:20:37;100245.75;;;17.64;100.00
61524;BME280;47393;38.758;-9.164;2022-10-31T05:22:59;100239.59;;;17.64;100.00
61524;BME280;47393;38.758;-9.164;2022-10-31T05:25:00;100242.28;;;17.64;100.00
61524;BME280;47393;38.758;-9.164;2022-10-31T05:27:04;100230.78;;;17.63;100.00
61524;BME280;47393;38.758;-9.164;2022-10-31T05:29:08;100230.28;;;17.68;100.00
61524;BME280;47393;38.758;-9.164;2022-10-31T05:31:09;100228.44;;;17.69;100.00
61524;BME280;47393;38.758;-9.164;2022-10-31T05:33:10;100213.63;;;17.74;100.00
61524;BME280;47393;38.758;-9.164;2022-10-31T05:35:30;100220.72;;;17.82;100.00
61524;BME280;47393;38.758;-9.164;2022-10-31T05:38:25;100226.97;;;17.89;100.00
61524;BME280;47393;38.758;-9.164;2022-10-31T05:41:21;100224.84;;;17.93;100.00
61524;BME280;47393;38.758;-9.164;2022-10-31T05:56:29;100240.00;;;18.15;100.00
61524;BME280;47393;38.758;-9.164;2022-10-31T05:59:24;100242.84;;;18.14;100.00
61524;BME280;47393;38.758;-9.164;2022-10-31T06:08:07;100245.69;;;18.12;100.00
61524;BME280;47393;38.758;-9.164;2022-10-31T06:10:15;100245.78;;;18.19;100.00
61524;BME280;47393;38.758;-9.164;2022-10-31T06:15:05;100246.44;;;18.21;100.00
61524;BME280;47393;38.758;-9.164;2022-10-31T06:17:34;100238.97;;;18.16;100.00
61524;BME280;47393;38.758;-9.164;2022-10-31T06:19:57;100249.28;;;18.20;100.00
61524;BME280;47393;38.758;-9.164;2022-10-31T06:25:15;100251.94;;;18.20;100.00
61524;BME280;47393;38.758;-9.164;2022-10-31T06:30:01;100261.56;;;18.21;100.00
61524;BME280;47393;38.758;-9.164;2022-10-31T06:38:13;100271.84;;;18.24;100.00
61524;BME280;47393;38.758;-9.164;2022-10-31T06:45:57;100277.31;;;18.30;100.00
61524;BME280;47393;38.758;-9.164;2022-10-31T06:51:01;100271.81;;;18.32;100.00
61524;BME280;47393;38.758;-9.164;2022-10-31T06:59:16;100277.13;;;18.32;100.00
61524;BME280;47393;38.758;-9.164;2022-10-31T07:08:38;100274.97;;;18.36;100.00
61524;BME280;47393;38.758;-9.164;2022-10-31T07:14:31;100276.78;;;18.35;100.00
61524;BME280;47393;38.758;-9.164;2022-10-31T07:23:53;100271.63;;;18.33;100.00
61524;BME280;47393;38.758;-9.164;2022-10-31T07:39:06;100273.59;;;18.40;100.00
61524;BME280;47393;38.758;-9.164;2022-10-31T07:45:04;100276.00;;;18.49;100.00
61524;BME280;47393;38.758;-9.164;2022-10-31T07:48:04;100288.31;;;18.50;100.00
61524;BME280;47393;38.758;-9.164;2022-10-31T08:00:20;100295.94;;;18.54;100.00
61524;BME280;47393;38.758;-9.164;2022-10-31T08:07:07;100307.91;;;18.58;100.00
61524;BME280;47393;38.758;-9.164;2022-10-31T08:09:47;100296.41;;;18.57;100.00
61524;BME280;47393;38.758;-9.164;2022-10-31T08:12:30;100311.97;;;18.68;100.00
61524;BME280;47393;38.758;-9.164;2022-10-31T08:15:41;100318.06;;;18.77;100.00
61524;BME280;47393;38.758;-9.164;2022-10-31T08:21:31;100326.25;;;18.76;100.00
61524;BME280;47393;38.758;-9.164;2022-10-31T08:24:06;100332.44;;;18.91;100.00
61524;BME280;47393;38.758;-9.164;2022-10-31T08:28:50;100337.88;;;18.98;100.00
61524;BME280;47393;38.758;-9.164;2022-10-31T08:31:06;100338.63;;;19.07;100.00
61524;BME280;47393;38.758;-9.164;2022-10-31T08:33:24;100344.44;;;19.10;100.00
61524;BME280;47393;38.758;-9.164;2022-10-31T08:35:46;100343.72;;;19.16;100.00
61524;BME280;47393;38.758;-9.164;2022-10-31T08:40:46;100344.38;;;19.18;100.00
61524;BME280;47393;38.758;-9.164;2022-10-31T08:43:02;100348.59;;;19.28;100.00
61524;BME280;47393;38.758;-9.164;2022-10-31T08:45:03;100365.59;;;19.27;100.00
61524;BME280;47393;38.758;-9.164;2022-10-31T08:47:06;100380.78;;;19.41;100.00
61524;BME280;47393;38.758;-9.164;2022-10-31T08:49:08;100388.25;;;19.31;100.00
61524;BME280;47393;38.758;-9.164;2022-10-31T08:51:31;100392.19;;;19.20;100.00
61524;BME280;47393;38.758;-9.164;2022-10-31T08:53:32;100401.44;;;19.09;100.00
61524;BME280;47393;38.758;-9.164;2022-10-31T08:55:53;100401.91;;;19.13;100.00
61524;BME280;47393;38.758;-9.164;2022-10-31T08:58:02;100401.25;;;19.11;100.00
61524;BME280;47393;38.758;-9.164;2022-10-31T09:00:23;100407.50;;;19.03;100.00
61524;BME280;47393;38.758;-9.164;2022-10-31T09:02:33;100414.44;;;19.27;100.00
61524;BME280;47393;38.758;-9.164;2022-10-31T09:04:36;100423.25;;;19.13;100.00
61524;BME280;47393;38.758;-9.164;2022-10-31T09:06:39;100423.69;;;19.16;100.00
61524;BME280;47393;38.758;-9.164;2022-10-31T09:08:42;100419.47;;;19.22;100.00
61524;BME280;47393;38.758;-9.164;2022-10-31T09:10:49;100424.22;;;19.50;100.00
61524;BME280;47393;38.758;-9.164;2022-10-31T09:13:10;100422.16;;;19.22;100.00
61524;BME280;47393;38.758;-9.164;2022-10-31T09:15:35;100425.06;;;19.12;100.00
61524;BME280;47393;38.758;-9.164;2022-10-31T09:17:52;100415.28;;;19.43;100.00
61524;BME280;47393;38.758;-9.164;2022-10-31T09:20:05;100429.22;;;19.53;100.00
61524;BME280;47393;38.758;-9.164;2022-10-31T09:22:09;100434.47;;;19.23;100.00
61524;BME280;47393;38.758;-9.164;2022-10-31T09:24:13;100435.81;;;19.42;100.00
61524;BME280;47393;38.758;-9.164;2022-10-31T09:26:16;100442.63;;;19.45;100.00
61524;BME280;47393;38.758;-9.164;2022-10-31T09:28:29;100443.19;;;19.55;100.00
61524;BME280;47393;38.758;-9.164;2022-10-31T09:30:34;100443.25;;;19.47;100.00
61524;BME280;47393;38.758;-9.164;2022-10-31T09:32:38;100442.25;;;19.48;100.00
61524;BME280;47393;38.758;-9.164;2022-10-31T09:34:45;100440.94;;;19.44;100.00
61524;BME280;47393;38.758;-9.164;2022-10-31T09:37:07;100435.91;;;19.49;100.00
61524;BME280;47393;38.758;-9.164;2022-10-31T09:45:06;100434.03;;;20.02;100.00
61524;BME280;47393;38.758;-9.164;2022-10-31T09:48:07;100449.41;;;20.00;100.00
61524;BME280;47393;38.758;-9.164;2022-10-31T09:53:09;100463.09;;;20.27;100.00
61524;BME280;47393;38.758;-9.164;2022-10-31T10:08:26;100489.84;;;19.74;100.00
61524;BME280;47393;38.758;-9.164;2022-10-31T10:33:08;100509.91;;;23.68;96.36
61524;BME280;47393;38.758;-9.164;2022-10-31T10:42:04;100532.19;;;22.53;99.72
61524;BME280;47393;38.758;-9.164;2022-10-31T11:03:45;100532.47;;;27.10;81.05
61524;BME280;47393;38.758;-9.164;2022-10-31T11:13:37;100524.59;;;25.85;80.92
61524;BME280;47393;38.758;-9.164;2022-10-31T11:24:36;100537.91;;;24.39;84.72
61524;BME280;47393;38.758;-9.164;2022-10-31T11:27:03;100544.78;;;24.22;87.57
61524;BME280;47393;38.758;-9.164;2022-10-31T11:29:32;100542.72;;;25.14;83.69
61524;BME280;47393;38.758;-9.164;2022-10-31T11:31:41;100536.84;;;25.56;80.26
61524;BME280;47393;38.758;-9.164;2022-10-31T11:34:07;100535.19;;;26.05;78.37
61524;BME280;47393;38.758;-9.164;2022-10-31T11:36:16;100538.22;;;25.90;77.49
61524;BME280;47393;38.758;-9.164;2022-10-31T11:38:19;100532.50;;;25.80;76.92
61524;BME280;47393;38.758;-9.164;2022-10-31T11:40:30;100541.81;;;25.34;76.60
61524;BME280;47393;38.758;-9.164;2022-10-31T11:42:38;100533.41;;;24.19;78.76
61524;BME280;47393;38.758;-9.164;2022-10-31T11:44:48;100533.66;;;23.98;83.03
61524;BME280;47393;38.758;-9.164;2022-10-31T11:47:01;100538.19;;;24.17;81.58
61524;BME280;47393;38.758;-9.164;2022-10-31T11:52:25;100543.78;;;24.75;80.55
61524;BME280;47393;38.758;-9.164;2022-10-31T11:56:44;100540.25;;;24.81;80.26
61524;BME280;47393;38.758;-9.164;2022-10-31T11:58:58;100539.47;;;24.67;78.45
61524;BME280;47393;38.758;-9.164;2022-10-31T12:01:00;100533.88;;;24.03;78.44
61524;BME280;47393;38.758;-9.164;2022-10-31T12:03:48;100544.00;;;24.01;81.54
61524;BME280;47393;38.758;-9.164;2022-10-31T12:05:25;100543.38;;;24.78;76.80
61524;BME280;47393;38.758;-9.164;2022-10-31T12:07:30;100544.09;;;24.46;77.09
61524;BME280;47393;38.758;-9.164;2022-10-31T12:09:33;100544.09;;;24.46;78.49
61524;BME280;47393;38.758;-9.164;2022-10-31T12:11:52;100537.31;;;24.24;78.79
61524;BME280;47393;38.758;-9.164;2022-10-31T12:14:19;100535.22;;;24.32;78.59
61524;BME280;47393;38.758;-9.164;2022-10-31T12:20:49;100544.47;;;24.50;72.18
61524;BME280;47393;38.758;-9.164;2022-10-31T12:25:27;100547.63;;;25.56;67.61
61524;BME280;47393;38.758;-9.164;2022-10-31T12:27:49;100555.94;;;24.84;70.72
61524;BME280;47393;38.758;-9.164;2022-10-31T12:30:17;100558.56;;;26.12;64.95
61524;BME280;47393;38.758;-9.164;2022-10-31T12:32:21;100559.75;;;26.90;60.03
61524;BME280;47393;38.758;-9.164;2022-10-31T12:37:07;100562.00;;;26.19;60.85
61524;BME280;47393;38.758;-9.164;2022-10-31T12:39:20;100557.22;;;25.96;62.84
61524;BME280;47393;38.758;-9.164;2022-10-31T12:46:24;100552.00;;;27.24;58.13
61524;BME280;47393;38.758;-9.164;2022-10-31T12:50:51;100557.13;;;28.27;55.46
61524;BME280;47393;38.758;-9.164;2022-10-31T12:55:31;100553.50;;;27.97;50.17
61524;BME280;47393;38.758;-9.164;2022-10-31T12:58:03;100549.38;;;28.30;45.55
61524;BME280;47393;38.758;-9.164;2022-10-31T13:00:14;100552.06;;;27.59;47.63
61524;BME280;47393;38.758;-9.164;2022-10-31T13:06:39;100553.66;;;26.94;50.32
61524;BME280;47393;38.758;-9.164;2022-10-31T13:08:45;100534.34;;;26.60;50.28
61524;BME280;47393;38.758;-9.164;2022-10-31T13:10:55;100538.44;;;26.33;49.60
61524;BME280;47393;38.758;-9.164;2022-10-31T13:13:02;100535.88;;;26.01;52.06
61524;BME280;47393;38.758;-9.164;2022-10-31T13:17:24;100540.50;;;25.68;53.36
61524;BME280;47393;38.758;-9.164;2022-10-31T13:19:31;100538.63;;;25.12;57.35
61524;BME280;47393;38.758;-9.164;2022-10-31T13:21:38;100544.19;;;24.78;59.99
61524;BME280;47393;38.758;-9.164;2022-10-31T13:23:40;100536.97;;;24.79;60.38
61524;BME280;47393;38.758;-9.164;2022-10-31T13:25:46;100538.00;;;24.71;62.21
61524;BME280;47393;38.758;-9.164;2022-10-31T13:28:02;100536.72;;;25.19;59.88
61524;BME280;47393;38.758;-9.164;2022-10-31T13:30:14;100534.56;;;25.60;59.58
61524;BME280;47393;38.758;-9.164;2022-10-31T13:32:19;100544.94;;;25.56;59.98
61524;BME280;47393;38.758;-9.164;2022-10-31T13:34:30;100531.81;;;25.41;60.10
61524;BME280;47393;38.758;-9.164;2022-10-31T13:36:35;100493.63;;;24.94;59.94
61524;BME280;47393;38.758;-9.164;2022-10-31T13:41:11;100532.88;;;24.56;61.34
61524;BME280;47393;38.758;-9.164;2022-10-31T13:45:16;100539.44;;;24.74;61.14
61524;BME280;47393;38.758;-9.164;2022-10-31T13:47:27;100535.94;;;25.12;61.01
61524;BME280;47393;38.758;-9.164;2022-10-31T13:49:49;100540.53;;;24.59;61.98
61524;BME280;47393;38.758;-9.164;2022-10-31T13:54:31;100534.66;;;24.76;61.88
61524;BME280;47393;38.758;-9.164;2022-10-31T13:56:35;100545.84;;;24.73;61.47
61524;BME280;47393;38.758;-9.164;2022-10-31T13:58:35;100550.28;;;24.99;60.97
61524;BME280;47393;38.758;-9.164;2022-10-31T14:00:45;100543.88;;;24.48;58.93
61524;BME280;47393;38.758;-9.164;2022-10-31T14:02:47;100547.66;;;24.27;59.37
61524;BME280;47393;38.758;-9.164;2022-10-31T14:07:21;100554.31;;;24.04;61.88
61524;BME280;47393;38.758;-9.164;2022-10-31T14:14:58;100551.44;;;23.59;66.95
61524;BME280;47393;38.758;-9.164;2022-10-31T14:17:31;100562.59;;;23.56;68.41
61524;BME280;47393;38.758;-9.164;2022-10-31T14:19:34;100563.16;;;23.31;68.50
61524;BME280;47393;38.758;-9.164;2022-10-31T14:21:44;100562.53;;;23.15;69.67
61524;BME280;47393;38.758;-9.164;2022-10-31T14:23:48;100565.47;;;23.47;68.38
61524;BME280;47393;38.758;-9.164;2022-10-31T14:26:33;100570.22;;;23.52;67.86
61524;BME280;47393;38.758;-9.164;2022-10-31T14:28:34;100577.66;;;23.70;67.10
61524;BME280;47393;38.758;-9.164;2022-10-31T14:30:38;100576.81;;;23.43;68.36
61524;BME280;47393;38.758;-9.164;2022-10-31T14:32:39;100575.41;;;23.67;68.06
61524;BME280;47393;38.758;-9.164;2022-10-31T14:34:41;100573.28;;;23.42;69.81
61524;BME280;47393;38.758;-9.164;2022-10-31T14:36:52;100582.63;;;22.85;73.22
61524;BME280;47393;38.758;-9.164;2022-10-31T14:39:21;100586.69;;;22.67;75.21
61524;BME280;47393;38.758;-9.164;2022-10-31T14:43:51;100568.53;;;22.69;76.01
61524;BME280;47393;38.758;-9.164;2022-10-31T14:46:02;100573.41;;;22.52;77.77
61524;BME280;47393;38.758;-9.164;2022-10-31T14:52:18;100586.38;;;22.20;78.47
61524;BME280;47393;38.758;-9.164;2022-10-31T14:57:06;100577.94;;;22.23;78.29
61524;BME280;47393;38.758;-9.164;2022-10-31T14:59:12;100586.59;;;22.19;78.15
61524;BME280;47393;38.758;-9.164;2022-10-31T15:01:30;100587.50;;;22.68;77.42
61524;BME280;47393;38.758;-9.164;2022-10-31T15:03:38;100589.78;;;23.19;74.00
61524;BME280;47393;38.758;-9.164;2022-10-31T15:05:50;100591.66;;;23.45;72.90
61524;BME280;47393;38.758;-9.164;2022-10-31T15:08:01;100592.56;;;22.97;74.85
61524;BME280;47393;38.758;-9.164;2022-10-31T15:10:05;100596.59;;;22.73;77.29
61524;BME280;47393;38.758;-9.164;2022-10-31T15:12:31;100601.66;;;22.20;79.46
61524;BME280;47393;38.758;-9.164;2022-10-31T15:14:32;100606.59;;;21.94;80.28
61524;BME280;47393;38.758;-9.164;2022-10-31T15:16:38;100604.31;;;21.91;80.81
61524;BME280;47393;38.758;-9.164;2022-10-31T15:18:49;100610.28;;;22.22;79.53
61524;BME280;47393;38.758;-9.164;2022-10-31T15:20:57;100613.66;;;22.30;79.01
61524;BME280;47393;38.758;-9.164;2022-10-31T15:23:03;100621.84;;;22.22;78.82
61524;BME280;47393;38.758;-9.164;2022-10-31T15:25:28;100613.63;;;21.95;79.18
61524;BME280;47393;38.758;-9.164;2022-10-31T15:27:39;100624.59;;;21.57;81.33
61524;BME280;47393;38.758;-9.164;2022-10-31T15:29:58;100630.34;;;21.54;81.37
61524;BME280;47393;38.758;-9.164;2022-10-31T15:32:27;100625.66;;;21.41;82.77
61524;BME280;47393;38.758;-9.164;2022-10-31T15:34:35;100630.56;;;21.38;83.04
61524;BME280;47393;38.758;-9.164;2022-10-31T15:39:44;100633.47;;;21.80;81.62
61524;BME280;47393;38.758;-9.164;2022-10-31T15:45:15;100641.97;;;21.47;81.66
61524;BME280;47393;38.758;-9.164;2022-10-31T15:47:22;100645.03;;;21.43;82.28
61524;BME280;47393;38.758;-9.164;2022-10-31T15:49:29;100656.56;;;21.44;82.36
61524;BME280;47393;38.758;-9.164;2022-10-31T15:51:52;100658.63;;;21.27;82.61
61524;BME280;47393;38.758;-9.164;2022-10-31T15:53:56;100662.06;;;21.21;83.45
61524;BME280;47393;38.758;-9.164;2022-10-31T15:56:27;100660.00;;;21.23;84.98
61524;BME280;47393;38.758;-9.164;2022-10-31T15:58:45;100664.44;;;21.16;84.84
61524;BME280;47393;38.758;-9.164;2022-10-31T16:01:06;100668.94;;;21.30;84.44
61524;BME280;47393;38.758;-9.164;2022-10-31T16:03:33;100671.94;;;21.57;83.86
61524;BME280;47393;38.758;-9.164;2022-10-31T16:10:32;100684.31;;;20.77;85.38
61524;BME280;47393;38.758;-9.164;2022-10-31T16:12:37;100687.56;;;20.49;85.89
61524;BME280;47393;38.758;-9.164;2022-10-31T16:20:05;100697.13;;;20.81;84.74
61524;BME280;47393;38.758;-9.164;2022-10-31T16:22:31;100702.28;;;20.83;84.18
61524;BME280;47393;38.758;-9.164;2022-10-31T16:25:14;100701.59;;;20.51;86.46
61524;BME280;47393;38.758;-9.164;2022-10-31T16:27:33;100694.94;;;20.32;86.39
61524;BME280;47393;38.758;-9.164;2022-10-31T16:29:45;100703.13;;;20.30;86.99
61524;BME280;47393;38.758;-9.164;2022-10-31T16:34:57;100696.56;;;20.33;86.77
61524;BME280;47393;38.758;-9.164;2022-10-31T16:37:07;100713.31;;;20.27;87.38
61524;BME280;47393;38.758;-9.164;2022-10-31T16:39:30;100715.50;;;20.23;88.03
61524;BME280;47393;38.758;-9.164;2022-10-31T16:41:50;100709.84;;;20.26;87.15
61524;BME280;47393;38.758;-9.164;2022-10-31T16:46:40;100724.25;;;19.94;88.87
61524;BME280;47393;38.758;-9.164;2022-10-31T16:49:07;100717.47;;;19.83;89.69
61524;BME280;47393;38.758;-9.164;2022-10-31T16:58:32;100724.78;;;19.58;91.55
61524;BME280;47393;38.758;-9.164;2022-10-31T17:03:51;100734.66;;;19.17;92.42